Time;durP1;ratioP1;P1;durP2;ratioP2;P2;SDS_P1;SDS_P2;PMS_P1;PMS_P2;Temp;Humidity;BMP_temperature;BMP_pressure;BME280_temperature;BME280_humidity;BME280_pressure;Samples;Min_cycle;Max_cycle;Signal;HPM_P1;HPM_P2
2022/06/08 00:01:29;;;;;;;;;;;;;;;32.17;30.41;97728.22;5042457;28;19963;-80
2022/06/08 00:03:57;;;;;;;;;;;;;;;32.38;30.38;97722.03;5043036;28;20015;-80
2022/06/08 00:06:23;;;;;;;;;;;;;;;32.36;30.66;97733.13;5042391;28;19916;-81
2022/06/08 00:08:49;;;;;;;;;;;;;;;32.70;30.05;97731.44;5044503;28;19914;-81
2022/06/08 00:11:16;;;;;;;;;;;;;;;32.74;29.93;97734.88;5042760;28;19975;-81
2022/06/08 00:13:42;;;;;;;;;;;;;;;32.45;30.07;97729.34;5041197;28;20361;-81
2022/06/08 00:16:09;;;;;;;;;;;;;;;32.56;30.34;97732.31;5042011;28;19917;-81
2022/06/08 00:18:35;;;;;;;;;;;;;;;32.89;29.57;97724.13;5046681;28;19920;-81
2022/06/08 00:21:01;;;;;;;;;;;;;;;32.79;29.85;97730.50;5045502;28;19919;-81
2022/06/08 00:23:27;;;;;;;;;;;;;;;33.18;29.47;97725.97;5044869;28;19925;-80
2022/06/08 00:25:53;;;;;;;;;;;;;;;33.39;28.74;97719.69;5042970;28;19916;-81
2022/06/08 00:28:19;;;;;;;;;;;;;;;33.43;28.68;97723.06;5044545;28;20007;-80
2022/06/08 00:30:45;;;;;;;;;;;;;;;33.40;28.95;97717.59;5045018;28;20015;-80
2022/06/08 00:33:11;;;;;;;;;;;;;;;33.64;28.76;97718.06;5042074;28;19936;-80
2022/06/08 00:35:37;;;;;;;;;;;;;;;33.66;28.37;97711.84;5041311;28;19917;-80
2022/06/08 00:38:03;;;;;;;;;;;;;;;33.63;28.61;97707.19;5042222;28;20680;-80
2022/06/08 00:40:37;;;;;;;;;;;;;;;33.68;28.49;97712.13;5042711;28;19958;-80
2022/06/08 00:43:03;;;;;;;;;;;;;;;33.82;28.39;97714.78;5042258;28;20384;-81
2022/06/08 00:45:29;;;;;;;;;;;;;;;33.48;28.52;97718.69;5040051;28;19990;-80
2022/06/08 00:47:58;;;;;;;;;;;;;;;33.55;28.66;97721.09;5043321;28;20319;-81
2022/06/08 00:50:26;;;;;;;;;;;;;;;33.94;28.01;97715.63;5011366;28;20278;-80
2022/06/08 00:52:53;;;;;;;;;;;;;;;34.04;27.79;97702.75;5002468;28;19925;-80
2022/06/08 00:55:21;;;;;;;;;;;;;;;33.96;27.72;97715.88;5001332;28;19975;-80
2022/06/08 00:57:50;;;;;;;;;;;;;;;33.76;28.25;97719.69;5001558;28;19921;-80
2022/06/08 01:00:19;;;;;;;;;;;;;;;33.65;28.42;97705.38;5001303;28;20333;-80
2022/06/08 01:02:45;;;;;;;;;;;;;;;33.82;28.26;97709.09;5003124;28;19941;-80
2022/06/08 01:05:18;;;;;;;;;;;;;;;33.89;28.30;97707.81;5005679;28;20040;-80
2022/06/08 01:07:44;;;;;;;;;;;;;;;33.81;28.47;97710.41;5003788;28;19924;-80
2022/06/08 01:10:13;;;;;;;;;;;;;;;33.68;28.58;97707.19;5004011;28;19921;-80
2022/06/08 01:12:39;;;;;;;;;;;;;;;33.84;28.29;97708.59;4998830;28;19972;-80
2022/06/08 01:15:05;;;;;;;;;;;;;;;34.00;28.04;97705.81;5006607;28;19925;-80
2022/06/08 01:17:31;;;;;;;;;;;;;;;34.00;28.11;97705.81;4999291;28;19925;-80
2022/06/08 01:19:57;;;;;;;;;;;;;;;34.00;27.81;97705.06;5005704;28;19920;-80
2022/06/08 01:22:23;;;;;;;;;;;;;;;33.76;28.05;97704.66;5006334;28;19932;-80
2022/06/08 01:24:51;;;;;;;;;;;;;;;33.50;28.69;97703.94;5001414;28;20300;-80
2022/06/08 01:27:22;;;;;;;;;;;;;;;33.24;29.13;97701.97;5001386;28;20023;-81
2022/06/08 01:29:58;;;;;;;;;;;;;;;33.32;28.87;97694.53;5001154;28;20361;-81
2022/06/08 01:32:28;;;;;;;;;;;;;;;33.42;28.72;97695.13;5007096;28;20003;-80
2022/06/08 01:35:03;;;;;;;;;;;;;;;33.56;28.60;97688.47;5005775;28;19925;-81
2022/06/08 01:37:35;;;;;;;;;;;;;;;33.44;28.58;97687.59;4999281;28;19924;-80
2022/06/08 01:40:16;;;;;;;;;;;;;;;33.35;29.14;97689.91;5003789;28;19921;-81
2022/06/08 01:42:42;;;;;;;;;;;;;;;33.38;28.71;97692.50;5004149;28;19917;-81
2022/06/08 01:45:29;;;;;;;;;;;;;;;33.49;29.05;97682.47;5002610;28;19928;-81
2022/06/08 01:47:55;;;;;;;;;;;;;;;33.34;29.21;97686.25;5001500;28;20067;-80
2022/06/08 01:50:34;;;;;;;;;;;;;;;33.14;29.21;97685.59;5026830;28;19999;-81
2022/06/08 01:53:13;;;;;;;;;;;;;;;33.24;29.14;97686.94;5020261;28;19972;-81
2022/06/08 01:55:53;;;;;;;;;;;;;;;33.39;29.31;97685.53;5044900;28;20027;-81
2022/06/08 01:58:34;;;;;;;;;;;;;;;33.60;28.85;97686.19;5041534;28;20007;-81
2022/06/08 02:01:05;;;;;;;;;;;;;;;33.93;28.08;97680.69;5037863;28;19979;-81
2022/06/08 02:03:37;;;;;;;;;;;;;;;33.97;28.31;97678.34;5041151;28;20421;-80
2022/06/08 02:06:03;;;;;;;;;;;;;;;33.93;28.27;97677.03;5039570;28;19982;-81
2022/06/08 02:08:50;;;;;;;;;;;;;;;33.85;28.55;97678.81;5035679;28;20356;-80
2022/06/08 02:11:16;;;;;;;;;;;;;;;34.02;28.19;97679.66;5040811;28;19932;-80
2022/06/08 02:13:41;;;;;;;;;;;;;;;33.89;28.40;97668.72;5041315;28;20261;-80
2022/06/08 02:16:14;;;;;;;;;;;;;;;33.82;28.26;97671.28;5039800;28;19966;-81
2022/06/08 02:18:43;;;;;;;;;;;;;;;33.81;28.39;97675.44;5040061;28;19976;-81
2022/06/08 02:21:12;;;;;;;;;;;;;;;33.85;28.69;97670.25;5041071;28;20007;-80
2022/06/08 02:23:44;;;;;;;;;;;;;;;33.96;28.09;97664.59;5040519;28;19932;-81
2022/06/08 02:26:21;;;;;;;;;;;;;;;34.09;28.13;97667.81;5037878;28;20344;-80
2022/06/08 02:28:50;;;;;;;;;;;;;;;34.04;27.92;97671.41;5040852;28;19917;-81
2022/06/08 02:31:16;;;;;;;;;;;;;;;34.04;28.22;97669.34;5041567;28;19924;-81
2022/06/08 02:36:34;;;;;;;;;;;;;;;34.36;27.82;97660.63;5040496;28;20358;-81
2022/06/08 02:39:11;;;;;;;;;;;;;;;34.47;27.55;97654.97;5040825;28;19916;-81
2022/06/08 02:41:39;;;;;;;;;;;;;;;34.55;27.45;97662.50;5038228;28;19928;-81
2022/06/08 02:44:08;;;;;;;;;;;;;;;34.73;27.10;97664.06;5038781;28;19925;-81
2022/06/08 02:46:46;;;;;;;;;;;;;;;34.86;26.87;97657.88;5039911;28;19925;-81
2022/06/08 02:49:12;;;;;;;;;;;;;;;35.01;26.66;97664.88;5025788;28;19917;-81
2022/06/08 02:51:41;;;;;;;;;;;;;;;34.90;26.63;97664.88;5041709;28;19924;-81
2022/06/08 02:54:13;;;;;;;;;;;;;;;34.79;27.00;97664.88;5038739;28;19920;-81
2022/06/08 02:56:42;;;;;;;;;;;;;;;34.84;26.92;97658.41;5039185;28;20288;-80
2022/06/08 02:59:08;;;;;;;;;;;;;;;34.75;27.15;97662.25;5036276;28;19921;-81
2022/06/08 03:01:39;;;;;;;;;;;;;;;34.60;27.09;97656.03;5036688;28;20070;-81
2022/06/08 03:04:08;;;;;;;;;;;;;;;34.82;26.84;97658.13;5040502;28;20284;-81
2022/06/08 03:06:37;;;;;;;;;;;;;;;34.99;26.69;97666.69;5041827;28;19923;-81
2022/06/08 03:09:05;;;;;;;;;;;;;;;35.11;26.66;97666.19;5040811;28;21407;-81
2022/06/08 03:11:36;;;;;;;;;;;;;;;35.22;26.28;97665.41;5041629;28;20360;-81
2022/06/08 03:14:07;;;;;;;;;;;;;;;35.35;26.12;97655.00;5040299;28;19919;-81
2022/06/08 03:16:33;;;;;;;;;;;;;;;35.50;26.06;97660.44;5042352;28;19924;-81
2022/06/08 03:18:59;;;;;;;;;;;;;;;35.62;25.66;97664.84;5039113;28;19923;-81
2022/06/08 03:21:25;;;;;;;;;;;;;;;35.50;26.12;97659.66;5044693;28;19927;-80
2022/06/08 03:23:52;;;;;;;;;;;;;;;35.15;26.56;97658.13;5049907;28;20014;-81
2022/06/08 03:26:19;;;;;;;;;;;;;;;34.70;27.37;97665.13;5040851;28;20010;-81
2022/06/08 03:28:46;;;;;;;;;;;;;;;34.34;28.22;97664.00;5047299;28;20039;-81
2022/06/08 03:31:12;;;;;;;;;;;;;;;34.13;28.60;97665.47;5046551;28;19927;-81
2022/06/08 03:33:38;;;;;;;;;;;;;;;34.29;28.14;97669.66;5046697;28;19931;-80
2022/06/08 03:36:04;;;;;;;;;;;;;;;34.34;28.21;97668.91;5045372;28;19913;-79
2022/06/08 03:38:30;;;;;;;;;;;;;;;34.61;27.95;97671.09;5045346;28;19924;-81
2022/06/08 03:40:57;;;;;;;;;;;;;;;34.73;27.91;97670.56;5043815;28;19974;-81
2022/06/08 03:43:23;;;;;;;;;;;;;;;34.58;27.83;97675.75;5042589;28;19917;-81
2022/06/08 03:45:51;;;;;;;;;;;;;;;34.12;28.42;97663.94;5047830;28;19925;-81
2022/06/08 03:48:18;;;;;;;;;;;;;;;34.17;28.27;97674.56;5046363;28;19920;-82
2022/06/08 03:50:45;;;;;;;;;;;;;;;34.64;27.85;97676.53;5049707;28;20380;-81
2022/06/08 03:53:14;;;;;;;;;;;;;;;35.08;27.39;97675.03;5048801;28;19951;-81
2022/06/08 03:55:40;;;;;;;;;;;;;;;34.97;27.22;97681.47;5048094;28;19916;-81
2022/06/08 03:58:07;;;;;;;;;;;;;;;34.51;27.83;97678.28;5045054;28;19963;-81
2022/06/08 04:00:34;;;;;;;;;;;;;;;34.06;28.48;97677.38;5045742;28;19975;-81
2022/06/08 04:03:00;;;;;;;;;;;;;;;34.04;28.55;97672.19;5038120;28;19921;-81
2022/06/08 04:05:27;;;;;;;;;;;;;;;34.04;28.48;97675.03;5041615;28;19999;-81
2022/06/08 04:07:53;;;;;;;;;;;;;;;34.04;28.42;97674.25;5037625;28;20548;-81
2022/06/08 04:10:19;;;;;;;;;;;;;;;33.97;28.42;97671.88;5039542;28;20024;-82
2022/06/08 04:12:45;;;;;;;;;;;;;;;34.00;28.52;97676.56;5044979;28;19916;-82
2022/06/08 04:15:41;;;;;;;;;;;;;;;33.79;28.58;97678.00;5042196;28;20023;-82
2022/06/08 04:17:57;;;;;;;;;;;;;;;33.64;28.85;97677.41;5044751;28;19923;-81
2022/06/08 04:20:23;;;;;;;;;;;;;;;33.85;28.82;97675.97;5043278;28;20011;-81
2022/06/08 04:22:49;;;;;;;;;;;;;;;33.55;29.16;97666.22;5040384;28;19971;-81
2022/06/08 04:25:16;;;;;;;;;;;;;;;33.27;29.69;97654.63;5040066;28;20270;-82
2022/06/08 04:27:42;;;;;;;;;;;;;;;33.41;29.78;97659.38;5041531;28;20004;-81
2022/06/08 04:30:08;;;;;;;;;;;;;;;33.88;29.08;97658.63;5047184;28;19952;-81
2022/06/08 04:32:34;;;;;;;;;;;;;;;34.37;28.45;97659.34;5043742;28;19925;-81
2022/06/08 04:35:01;;;;;;;;;;;;;;;34.66;27.77;97659.66;5045170;28;20331;-81
2022/06/08 04:37:27;;;;;;;;;;;;;;;34.15;28.43;97654.34;5040758;28;19913;-81
2022/06/08 04:39:53;;;;;;;;;;;;;;;34.40;28.03;97656.22;5043635;28;19971;-82
2022/06/08 04:42:19;;;;;;;;;;;;;;;34.76;27.55;97654.50;5050479;28;20632;-82
2022/06/08 04:44:45;;;;;;;;;;;;;;;34.98;27.28;97650.88;5047563;28;19916;-82
2022/06/08 04:47:11;;;;;;;;;;;;;;;34.78;27.33;97648.25;5030935;28;19986;-82
2022/06/08 04:49:38;;;;;;;;;;;;;;;34.73;27.24;97661.22;5031028;28;19917;-81
2022/06/08 04:52:05;;;;;;;;;;;;;;;34.60;27.44;97656.03;5044125;28;20043;-81
2022/06/08 04:54:31;;;;;;;;;;;;;;;33.81;27.98;97655.50;5026032;28;19916;-82
2022/06/08 04:57:00;;;;;;;;;;;;;;;33.83;28.25;97662.25;5007504;28;19982;-82
2022/06/08 04:59:27;;;;;;;;;;;;;;;33.90;28.15;97658.13;5045279;28;19948;-81
2022/06/08 05:01:53;;;;;;;;;;;;;;;33.71;27.71;97660.63;5041139;28;19913;-81
2022/06/08 05:04:19;;;;;;;;;;;;;;;33.92;27.87;97664.06;5043362;28;19981;-82
2022/06/08 05:06:45;;;;;;;;;;;;;;;33.78;27.59;97673.59;5044829;28;19916;-80
2022/06/08 05:09:11;;;;;;;;;;;;;;;32.51;29.66;97671.28;5042142;28;19924;-80
2022/06/08 05:11:37;;;;;;;;;;;;;;;32.22;29.84;97673.53;5043352;28;19921;-80
2022/06/08 05:14:03;;;;;;;;;;;;;;;31.09;31.65;97672.47;5044068;28;20288;-79
2022/06/08 05:16:29;;;;;;;;;;;;;;;30.67;33.07;97674.81;5039260;28;19920;-79
2022/06/08 05:18:55;;;;;;;;;;;;;;;31.69;30.72;97666.16;5037388;28;20011;-79
2022/06/08 05:21:21;;;;;;;;;;;;;;;31.93;31.35;97680.91;5045577;28;20333;-80
2022/06/08 05:23:47;;;;;;;;;;;;;;;31.71;31.47;97677.00;5040831;28;19924;-80
2022/06/08 05:26:13;;;;;;;;;;;;;;;32.30;30.76;97675.44;5045917;28;19970;-81
2022/06/08 05:28:39;;;;;;;;;;;;;;;32.48;29.79;97666.59;5043894;28;19924;-81
2022/06/08 05:31:06;;;;;;;;;;;;;;;31.89;31.20;97674.69;5044066;28;19925;-81
2022/06/08 05:33:32;;;;;;;;;;;;;;;32.48;30.26;97666.59;5041676;28;19963;-82
2022/06/08 05:35:58;;;;;;;;;;;;;;;32.73;29.83;97670.72;5043107;28;20269;-82
2022/06/08 05:38:24;;;;;;;;;;;;;;;32.58;29.28;97681.47;5045922;28;19917;-82
2022/06/08 05:40:50;;;;;;;;;;;;;;;32.74;29.41;97690.13;5042938;28;19928;-82
2022/06/08 05:43:17;;;;;;;;;;;;;;;33.48;28.69;97683.75;5043022;28;19972;-81
2022/06/08 05:45:45;;;;;;;;;;;;;;;33.10;29.29;97685.81;5040708;28;20273;-82
2022/06/08 05:48:11;;;;;;;;;;;;;;;32.15;30.54;97693.84;5044009;28;19955;-82
2022/06/08 05:50:38;;;;;;;;;;;;;;;30.94;32.15;97688.75;5025610;28;20302;-82
2022/06/08 05:53:04;;;;;;;;;;;;;;;31.38;32.04;97688.66;5041289;28;20339;-82
2022/06/08 05:55:30;;;;;;;;;;;;;;;32.09;30.71;97688.13;5045048;28;19919;-82
2022/06/08 05:57:56;;;;;;;;;;;;;;;32.06;30.83;97695.59;5041735;28;19917;-82
2022/06/08 06:00:27;;;;;;;;;;;;;;;32.92;29.86;97693.91;5040630;28;19917;-81
2022/06/08 06:02:54;;;;;;;;;;;;;;;33.67;28.50;97687.78;5043794;28;19916;-81
2022/06/08 06:05:22;;;;;;;;;;;;;;;33.68;27.95;97692.97;5042681;28;19924;-82
2022/06/08 06:07:48;;;;;;;;;;;;;;;33.77;28.28;97692.00;5040804;28;20415;-82
2022/06/08 06:10:15;;;;;;;;;;;;;;;33.42;28.64;97706.50;5041095;28;19968;-82
2022/06/08 06:12:41;;;;;;;;;;;;;;;33.88;28.09;97709.13;5042007;28;20019;-82
2022/06/08 06:15:08;;;;;;;;;;;;;;;34.36;27.28;97715.56;5041574;28;20009;-82
2022/06/08 06:17:34;;;;;;;;;;;;;;;34.37;26.84;97714.28;5042525;28;19917;-82
2022/06/08 06:20:00;;;;;;;;;;;;;;;34.20;26.98;97707.75;5038584;28;19947;-81
2022/06/08 06:22:26;;;;;;;;;;;;;;;33.96;27.54;97713.81;5043560;28;19922;-81
2022/06/08 06:24:53;;;;;;;;;;;;;;;33.79;27.52;97723.59;5043678;28;20002;-81
2022/06/08 06:27:21;;;;;;;;;;;;;;;33.78;27.82;97719.94;5044972;28;19917;-82
2022/06/08 06:29:47;;;;;;;;;;;;;;;33.81;27.73;97715.31;5044587;28;19917;-81
2022/06/08 06:32:17;;;;;;;;;;;;;;;33.93;27.56;97714.09;5039440;28;19921;-82
2022/06/08 06:34:43;;;;;;;;;;;;;;;33.87;27.81;97722.59;5045083;28;20003;-81
2022/06/08 06:37:09;;;;;;;;;;;;;;;33.86;27.72;97723.91;5025283;28;19963;-82
2022/06/08 06:39:35;;;;;;;;;;;;;;;34.02;27.63;97722.41;5042562;28;20429;-82
2022/06/08 06:42:01;;;;;;;;;;;;;;;34.15;27.62;97719.91;5041045;28;20015;-81
2022/06/08 06:44:27;;;;;;;;;;;;;;;33.97;27.33;97720.31;5042377;28;19917;-81
2022/06/08 06:46:53;;;;;;;;;;;;;;;33.73;27.75;97719.91;5041017;28;19924;-81
2022/06/08 06:49:20;;;;;;;;;;;;;;;33.70;27.48;97723.78;5040892;28;19917;-81
2022/06/08 06:51:46;;;;;;;;;;;;;;;33.44;28.25;97716.06;5042754;28;20361;-81
2022/06/08 06:54:12;;;;;;;;;;;;;;;33.41;28.32;97714.25;5039913;28;19920;-81
2022/06/08 06:56:38;;;;;;;;;;;;;;;32.93;28.70;97706.84;5021740;28;19921;-81
2022/06/08 06:59:04;;;;;;;;;;;;;;;33.24;28.94;97709.72;5040056;28;19920;-81
2022/06/08 07:01:32;;;;;;;;;;;;;;;33.60;28.63;97706.13;5040951;28;19921;-82
2022/06/08 07:03:58;;;;;;;;;;;;;;;33.88;27.75;97706.28;5042567;28;19970;-81
2022/06/08 07:06:24;;;;;;;;;;;;;;;32.24;30.52;97702.22;5040569;28;19913;-82
2022/06/08 07:08:50;;;;;;;;;;;;;;;32.69;30.87;97688.03;5040737;28;19920;-82
2022/06/08 07:14:03;;;;;;;;;;;;;;;32.55;30.85;97700.28;5040062;28;19923;-82
2022/06/08 07:16:29;;;;;;;;;;;;;;;32.45;30.68;97698.84;5042641;28;19921;-82
2022/06/08 07:18:55;;;;;;;;;;;;;;;33.12;30.18;97694.63;5041515;28;19913;-82
2022/06/08 07:21:22;;;;;;;;;;;;;;;32.29;30.94;97702.31;5040389;28;19920;-82
2022/06/08 07:23:48;;;;;;;;;;;;;;;32.26;30.50;97697.59;5037652;28;19961;-82
2022/06/08 07:26:14;;;;;;;;;;;;;;;33.10;29.66;97687.88;5041822;28;20023;-82
2022/06/08 07:28:40;;;;;;;;;;;;;;;32.59;30.01;97683.78;5041057;28;20359;-82
2022/06/08 07:31:06;;;;;;;;;;;;;;;32.11;31.01;97688.41;5024212;28;20407;-82
2022/06/08 07:33:34;;;;;;;;;;;;;;;30.84;33.07;97689.28;5042360;28;19998;-82
2022/06/08 07:36:00;;;;;;;;;;;;;;;30.85;33.41;97685.97;5041775;28;20364;-82
2022/06/08 07:38:26;;;;;;;;;;;;;;;31.05;32.51;97686.09;5038812;28;20384;-82
2022/06/08 07:40:52;;;;;;;;;;;;;;;31.11;32.40;97691.84;5042230;28;19928;-82
2022/06/08 07:43:19;;;;;;;;;;;;;;;31.20;32.67;97686.06;5039816;28;20389;-82
2022/06/08 07:45:45;;;;;;;;;;;;;;;31.77;31.78;97694.91;5040028;28;20368;-82
2022/06/08 07:50:56;;;;;;;;;;;;;;;30.86;33.08;97700.91;5040004;28;20018;-82
2022/06/08 07:53:22;;;;;;;;;;;;;;;31.19;32.93;97693.78;5040914;28;20348;-82
2022/06/08 07:55:48;;;;;;;;;;;;;;;31.61;31.73;97704.75;5040594;28;19916;-82
2022/06/08 07:58:14;;;;;;;;;;;;;;;31.91;31.41;97697.69;5041930;28;19924;-82
2022/06/08 08:00:47;;;;;;;;;;;;;;;32.38;30.68;97704.97;5023422;28;20273;-82
2022/06/08 08:03:16;;;;;;;;;;;;;;;31.74;31.54;97708.03;5037180;28;19921;-82
2022/06/08 08:05:43;;;;;;;;;;;;;;;33.15;29.42;97701.38;5044070;28;19924;-82
2022/06/08 08:08:09;;;;;;;;;;;;;;;33.83;28.40;97704.97;5044378;28;19921;-82
2022/06/08 08:10:36;;;;;;;;;;;;;;;34.27;27.65;97707.25;5042186;28;20361;-82
2022/06/08 08:13:02;;;;;;;;;;;;;;;34.57;27.28;97711.25;5042042;28;20310;-82
2022/06/08 08:15:29;;;;;;;;;;;;;;;34.53;27.20;97718.50;5046088;28;19938;-82
2022/06/08 08:17:55;;;;;;;;;;;;;;;34.85;26.78;97713.38;5043316;28;19959;-82
2022/06/08 08:20:24;;;;;;;;;;;;;;;35.29;26.43;97721.97;5045022;28;20284;-82
2022/06/08 08:22:50;;;;;;;;;;;;;;;35.66;25.88;97738.84;5044337;28;20376;-82
2022/06/08 08:25:17;;;;;;;;;;;;;;;35.89;25.60;97744.00;5043472;28;19912;-82
2022/06/08 08:27:44;;;;;;;;;;;;;;;36.02;25.36;97749.97;5045557;28;19917;-82
2022/06/08 08:30:11;;;;;;;;;;;;;;;36.08;25.50;97749.16;5043234;28;20430;-82
2022/06/08 08:32:37;;;;;;;;;;;;;;;35.80;25.72;97744.25;5045472;28;19913;-82
2022/06/08 08:35:04;;;;;;;;;;;;;;;34.21;27.63;97739.88;5044364;28;19985;-82
2022/06/08 08:37:30;;;;;;;;;;;;;;;33.93;28.58;97743.34;5045483;28;19920;-81
2022/06/08 08:39:56;;;;;;;;;;;;;;;34.01;29.62;97761.50;5045237;28;19978;-81
2022/06/08 08:42:22;;;;;;;;;;;;;;;34.39;29.24;97762.22;5030358;28;20327;-81
2022/06/08 08:44:56;;;;;;;;;;;;;;;34.07;29.28;97750.94;5046133;28;19924;-81
2022/06/08 08:47:27;;;;;;;;;;;;;;;33.67;29.52;97761.81;5040131;28;19916;-81
2022/06/08 08:49:59;;;;;;;;;;;;;;;33.75;29.96;97769.38;5022284;28;19928;-81
2022/06/08 08:52:35;;;;;;;;;;;;;;;33.83;29.86;97776.19;5024451;28;19963;-81
2022/06/08 08:55:05;;;;;;;;;;;;;;;34.26;29.00;97768.38;5023020;28;19920;-81
2022/06/08 08:57:36;;;;;;;;;;;;;;;34.28;28.53;97762.19;5023778;28;20024;-81
2022/06/08 09:00:14;;;;;;;;;;;;;;;33.97;28.95;97760.97;5023568;28;19936;-82
2022/06/08 09:05:26;;;;;;;;;;;;;;;33.39;29.72;97762.38;5021728;28;19924;-81
2022/06/08 09:07:52;;;;;;;;;;;;;;;33.28;29.85;97765.13;5022819;28;20296;-81
2022/06/08 09:10:21;;;;;;;;;;;;;;;33.64;29.60;97768.53;5022170;28;19921;-82
2022/06/08 09:12:47;;;;;;;;;;;;;;;33.58;29.53;97753.47;5025032;28;19917;-81
2022/06/08 09:15:14;;;;;;;;;;;;;;;33.08;29.88;97753.03;5023980;28;19924;-82
2022/06/08 09:17:49;;;;;;;;;;;;;;;32.36;31.64;97755.06;5026902;28;19917;-81
2022/06/08 09:20:21;;;;;;;;;;;;;;;32.64;31.88;97744.81;5023598;28;20022;-82
2022/06/08 09:22:48;;;;;;;;;;;;;;;31.84;32.60;97740.69;5023101;28;19951;-81
2022/06/08 09:25:24;;;;;;;;;;;;;;;32.12;32.41;97721.19;5026797;28;19924;-81
2022/06/08 09:27:52;;;;;;;;;;;;;;;31.79;33.46;97718.69;5020673;28;20297;-81
2022/06/08 09:30:19;;;;;;;;;;;;;;;32.08;32.69;97710.06;5023102;28;19971;-81
2022/06/08 09:32:49;;;;;;;;;;;;;;;31.93;33.51;97711.38;5022188;28;19921;-81
2022/06/08 09:35:15;;;;;;;;;;;;;;;31.55;34.12;97706.75;5024856;28;19920;-81
2022/06/08 09:37:41;;;;;;;;;;;;;;;30.20;36.73;97709.72;5021660;28;19916;-81
2022/06/08 09:40:36;;;;;;;;;;;;;;;31.65;35.85;97707.41;5021408;28;20008;-82
2022/06/08 09:43:17;;;;;;;;;;;;;;;31.76;33.92;97707.53;5020786;28;19936;-81
2022/06/08 09:45:52;;;;;;;;;;;;;;;32.62;33.74;97705.53;5025315;28;19917;-81
2022/06/08 09:51:27;;;;;;;;;;;;;;;32.88;33.27;97699.84;5040802;28;19959;-81
2022/06/08 09:54:01;;;;;;;;;;;;;;;32.59;33.00;97695.16;5043350;28;20011;-81
2022/06/08 09:56:27;;;;;;;;;;;;;;;33.40;32.42;97686.28;5042737;28;19917;-81
2022/06/08 09:59:02;;;;;;;;;;;;;;;33.87;31.98;97684.75;5042507;28;20019;-81
2022/06/08 10:01:35;;;;;;;;;;;;;;;34.91;30.26;97689.28;5041077;28;19924;-81
2022/06/08 10:04:21;;;;;;;;;;;;;;;35.18;28.72;97682.78;5029923;28;19924;-81
2022/06/08 10:07:01;;;;;;;;;;;;;;;35.22;29.20;97689.00;5034831;28;20357;-81
2022/06/08 10:09:50;;;;;;;;;;;;;;;33.43;31.38;97694.59;5037333;28;19917;-81
2022/06/08 10:12:17;;;;;;;;;;;;;;;32.74;31.94;97689.38;5038939;28;19916;-81
2022/06/08 10:14:46;;;;;;;;;;;;;;;33.25;31.45;97679.97;5041740;28;19979;-81
2022/06/08 10:17:17;;;;;;;;;;;;;;;33.29;31.13;97687.00;5040018;28;19970;-82
2022/06/08 10:19:58;;;;;;;;;;;;;;;32.83;31.52;97689.19;5040067;28;19916;-81
2022/06/08 10:22:27;;;;;;;;;;;;;;;32.27;32.82;97687.03;5041423;28;19916;-81
2022/06/08 10:25:03;;;;;;;;;;;;;;;32.89;31.62;97681.47;5038442;28;19924;-81
2022/06/08 10:27:33;;;;;;;;;;;;;;;34.00;30.71;97677.31;5043002;28;19928;-80
2022/06/08 10:30:25;;;;;;;;;;;;;;;34.92;28.71;97673.69;5042380;28;20015;-81
2022/06/08 10:32:59;;;;;;;;;;;;;;;34.47;28.83;97672.06;5035257;28;19917;-80
2022/06/08 10:35:46;;;;;;;;;;;;;;;34.15;28.78;97670.66;5040063;28;19921;-80
2022/06/08 10:38:19;;;;;;;;;;;;;;;34.10;29.09;97660.81;5037396;28;19917;-81
2022/06/08 10:40:56;;;;;;;;;;;;;;;34.57;28.30;97668.47;5041009;28;20258;-81
2022/06/08 10:43:25;;;;;;;;;;;;;;;35.02;27.85;97657.13;5044716;28;19959;-79
2022/06/08 10:45:53;;;;;;;;;;;;;;;34.44;28.63;97670.22;5043459;28;19955;-80
2022/06/08 10:48:39;;;;;;;;;;;;;;;34.82;28.06;97654.50;5042796;28;19917;-80
2022/06/08 10:51:11;;;;;;;;;;;;;;;34.15;30.11;97653.56;5029672;28;19917;-81
2022/06/08 10:56:32;;;;;;;;;;;;;;;34.47;29.30;97650.00;5041193;28;19971;-80
2022/06/08 10:59:07;;;;;;;;;;;;;;;34.63;28.94;97645.69;5040436;28;20398;-80
2022/06/08 11:01:52;;;;;;;;;;;;;;;34.18;29.62;97647.63;5039413;28;20276;-80
2022/06/08 11:04:27;;;;;;;;;;;;;;;33.86;30.23;97651.88;5040144;28;19917;-80
2022/06/08 11:07:00;;;;;;;;;;;;;;;33.72;30.03;97656.50;5039380;28;19917;-81
2022/06/08 11:09:32;;;;;;;;;;;;;;;34.46;29.43;97644.84;5039650;28;19924;-80
2022/06/08 11:12:04;;;;;;;;;;;;;;;33.93;30.59;97645.72;5040913;28;19921;-80
2022/06/08 11:14:30;;;;;;;;;;;;;;;33.93;29.63;97655.03;5039436;28;19924;-80
2022/06/08 11:16:59;;;;;;;;;;;;;;;34.14;29.71;97646.31;5038985;28;20288;-80
2022/06/08 11:19:27;;;;;;;;;;;;;;;34.25;30.28;97647.13;5040700;28;19939;-80
2022/06/08 11:21:57;;;;;;;;;;;;;;;34.04;29.41;97642.91;5043089;28;19917;-80
2022/06/08 11:24:26;;;;;;;;;;;;;;;34.49;28.72;97655.22;5040600;28;19956;-80
2022/06/08 11:27:12;;;;;;;;;;;;;;;34.50;28.62;97657.53;5037109;28;19917;-80
2022/06/08 11:29:48;;;;;;;;;;;;;;;34.45;28.82;97654.69;5043532;28;19912;-80
2022/06/08 11:32:26;;;;;;;;;;;;;;;34.70;27.90;97648.78;5042402;28;19962;-80
2022/06/08 11:34:56;;;;;;;;;;;;;;;34.71;28.09;97644.63;5041546;28;19979;-80
2022/06/08 11:37:31;;;;;;;;;;;;;;;34.99;27.54;97636.06;5042792;28;20343;-80
2022/06/08 11:40:14;;;;;;;;;;;;;;;34.15;29.00;97637.25;5040344;28;19921;-80
2022/06/08 11:42:58;;;;;;;;;;;;;;;34.00;29.11;97642.38;5044441;28;19970;-80
2022/06/08 11:45:33;;;;;;;;;;;;;;;34.27;29.29;97635.19;5044261;28;19924;-80
2022/06/08 11:48:13;;;;;;;;;;;;;;;34.52;28.88;97645.59;5045174;28;19993;-80
2022/06/08 11:50:41;;;;;;;;;;;;;;;34.51;28.96;97652.63;5044537;28;19923;-80
2022/06/08 11:53:15;;;;;;;;;;;;;;;34.37;28.97;97654.41;5047404;28;20380;-80
2022/06/08 11:55:45;;;;;;;;;;;;;;;34.55;28.66;97656.03;5041134;28;20403;-80
2022/06/08 11:58:16;;;;;;;;;;;;;;;34.65;28.61;97648.78;5043923;28;19917;-80
2022/06/08 12:00:46;;;;;;;;;;;;;;;34.44;29.13;97651.06;5045054;28;20392;-80
2022/06/08 12:03:23;;;;;;;;;;;;;;;34.56;28.85;97646.19;5042659;28;19917;-80
2022/06/08 12:05:53;;;;;;;;;;;;;;;34.81;28.36;97642.31;5042588;28;19925;-80
2022/06/08 12:08:33;;;;;;;;;;;;;;;34.80;28.37;97643.59;5043556;28;19987;-80
2022/06/08 12:11:01;;;;;;;;;;;;;;;34.37;29.14;97645.88;5044990;28;19932;-80
2022/06/08 12:13:27;;;;;;;;;;;;;;;34.82;27.83;97641.03;5043917;28;20376;-80
2022/06/08 12:15:55;;;;;;;;;;;;;;;34.90;28.03;97638.41;5045719;28;19970;-80
2022/06/08 12:18:24;;;;;;;;;;;;;;;34.74;28.48;97634.25;5046145;28;20320;-80
2022/06/08 12:21:17;;;;;;;;;;;;;;;34.73;28.68;97641.25;5041109;28;19925;-80
2022/06/08 12:23:55;;;;;;;;;;;;;;;35.02;28.17;97637.94;5046933;28;20379;-80
2022/06/08 12:26:22;;;;;;;;;;;;;;;34.22;29.33;97633.91;5040220;28;19917;-80
2022/06/08 12:28:50;;;;;;;;;;;;;;;34.25;29.40;97632.09;5043820;28;19920;-80
2022/06/08 12:31:31;;;;;;;;;;;;;;;34.36;29.75;97635.75;5040410;28;20349;-80
2022/06/08 12:34:17;;;;;;;;;;;;;;;34.93;28.72;97626.75;5043058;28;19924;-80
2022/06/08 12:36:43;;;;;;;;;;;;;;;34.89;28.63;97631.16;5045527;28;19942;-80
2022/06/08 12:39:11;;;;;;;;;;;;;;;34.85;29.00;97627.78;5045346;28;20127;-80
2022/06/08 12:41:40;;;;;;;;;;;;;;;34.20;29.69;97627.94;5043417;28;20377;-80
2022/06/08 12:44:12;;;;;;;;;;;;;;;33.32;30.51;97623.38;5044636;28;19971;-80
2022/06/08 12:46:46;;;;;;;;;;;;;;;34.08;30.15;97629.97;5039767;28;19916;-80
2022/06/08 12:49:12;;;;;;;;;;;;;;;34.62;29.36;97622.06;5043179;28;19917;-80
2022/06/08 12:51:40;;;;;;;;;;;;;;;34.97;29.12;97615.06;5041082;28;19917;-80
2022/06/08 12:54:12;;;;;;;;;;;;;;;34.36;29.51;97612.16;5045098;28;19912;-80
2022/06/08 12:56:38;;;;;;;;;;;;;;;34.23;30.57;97618.38;5042919;28;19942;-80
2022/06/08 12:59:04;;;;;;;;;;;;;;;33.65;31.49;97622.81;5033404;28;20049;-80
2022/06/08 13:01:30;;;;;;;;;;;;;;;33.76;30.59;97616.38;5036957;28;19920;-80
2022/06/08 13:03:56;;;;;;;;;;;;;;;33.17;31.64;97613.44;5046016;28;20364;-80
2022/06/08 13:06:24;;;;;;;;;;;;;;;33.08;31.42;97620.09;5046513;28;20380;-81
2022/06/08 13:08:50;;;;;;;;;;;;;;;31.83;33.04;97616.25;5042509;28;19948;-81
2022/06/08 13:11:19;;;;;;;;;;;;;;;32.62;32.80;97611.72;5045910;28;19951;-80
2022/06/08 13:13:45;;;;;;;;;;;;;;;32.15;33.21;97609.41;5026999;28;19913;-81
2022/06/08 13:16:15;;;;;;;;;;;;;;;31.36;33.67;97620.28;5044153;28;19924;-79